General Aviation Weather

Text Reports

Enter one or more of the following location identifiers separated by a space:

Zip Code, Four-Character ICAO or Three-Character IATA airport codes.

METAR - Aviation Routine Weather Report
KBBW - Broken Bow, Nebraska
Updated at 11:53 PM GMT on January 29, 2015 (5:53 PM CST):
METAR KBBW 292353Z AUTO 33003KT 10SM CLR 03/M07 A3046 RMK AO2 SLP333 T00281072 10078 20028 53010
TAF - Terminal Area Forecast
KBBW - Broken Bow, Nebraska
Updated at 11:53 PM GMT on January 29, 2015 (5:53 PM CST):
No TAF is currently available for this location.
Decoded:
No decoded TAF is available.
PIREP - Pilot Weather Report
KBBW - Broken Bow, Nebraska
Updated at 11:53 PM GMT on January 29, 2015 (5:53 PM CST):
No PIREP is currently available for this location.
AIRMET - Airmens Meteorological Information
KBBW - Broken Bow, Nebraska
Updated at 11:53 PM GMT on January 29, 2015 (5:53 PM CST):
No AIRMET is currently available for this location.
SIGMET - Significant Meteorological Information
KBBW - Broken Bow, Nebraska
Updated at 11:53 PM GMT on January 29, 2015 (5:53 PM CST):
No SIGMET is currently available for this location.
NOTAM - Notice to Airmen
KBBW - Broken Bow, Nebraska
Updated at 11:53 PM GMT on January 29, 2015 (5:53 PM CST):
No NOTAM is currently available for this location.
Forecast Area
KBBW - Broken Bow, Nebraska
Updated at 11:53 PM GMT on January 29, 2015 (5:53 PM CST):
No NOTAM is currently available for this location.
Aviation Weather Maps